PWSweather.com
Personal Weather Stations
Station Observations
SBERGENWX
Wood Ridge, NJ 07075

Wood Ridge, NJ 07075

Lat: 40.851667, Lon: -74.088131

Elevation: 177

Station Type: Davis Vantage Vue

http://201weather.com/

High Low Average
Temperature 33.1°F0.6°C 16.8°F-8.4°C 25.1°F-3.8°C
Dew Point 13.2°F-10.4°C 4.3°F-15.4°C 9.1°F-12.7°C
Winds 1.2 mph 1.9 kmh Calm Calm Calm SWCalm SW
Wind Gusts 3.5 mph5.6 kmh -- --
Humidity 70% 35% 51%
Pressure 30.56 in1034.9 mb 30.43 in1030.5 mb -
Precipitation 0.00 in0.0 mm - -
Hour Temp Dew Point Humidity Winds Wind Gusts Pressure Precip Precip Rate Daily Precip Total
12:00 AM 20.0°F-6.7°C 3.9°F-15.6°C 49% Calm Calm -- 30.43 in1030.5 mb - 0.00 in0.0 mm 0.01 in0.3 mm
12:15 AM 19.8°F-6.8°C 4.6°F-15.2°C 51% Calm Calm -- 30.42 in1030.1 mb - 0.00 in0.0 mm 0.01 in0.3 mm
12:30 AM 19.6°F-6.9°C 4.4°F-15.3°C 51% Calm Calm -- 30.42 in1030.1 mb - 0.00 in0.0 mm 0.01 in0.3 mm
12:45 AM 19.5°F-6.9°C 4.3°F-15.4°C 51% Calm Calm -- 30.43 in1030.5 mb - 0.00 in0.0 mm 0.01 in0.3 mm
01:00 AM 19.5°F-6.9°C 4.7°F-15.2°C 52% Calm Calm -- 30.43 in1030.5 mb - 0.00 in0.0 mm 0.00 in0.0 mm
01:15 AM 19.3°F-7.1°C 4.5°F-15.3°C 52% Calm Calm -- 30.44 in1030.8 mb - 0.00 in0.0 mm 0.00 in0.0 mm
01:30 AM 19.2°F-7.1°C 4.4°F-15.3°C 52% 1.2 mph WNW1.9 kmh WNW 3.5 mph5.6 kmh 30.45 in1031.2 mb - 0.00 in0.0 mm 0.00 in0.0 mm
01:45 AM 19.2°F-7.1°C 4.8°F-15.1°C 53% 1.2 mph WNW1.9 kmh WNW 1.2 mph1.9 kmh 30.45 in1031.2 mb - 0.00 in0.0 mm 0.00 in0.0 mm
02:00 AM 19.2°F-7.1°C 4.8°F-15.1°C 53% Calm Calm -- 30.45 in1031.2 mb - 0.00 in0.0 mm 0.00 in0.0 mm
02:15 AM 19.1°F-7.2°C 4.8°F-15.1°C 53% Calm Calm -- 30.45 in1031.2 mb - 0.00 in0.0 mm 0.00 in0.0 mm
02:30 AM 18.8°F-7.3°C 4.9°F-15.1°C 54% Calm Calm -- 30.46 in1031.5 mb - 0.00 in0.0 mm 0.00 in0.0 mm
02:45 AM 18.7°F-7.4°C 4.4°F-15.3°C 53% Calm Calm -- 30.47 in1031.8 mb - 0.00 in0.0 mm 0.00 in0.0 mm
03:00 AM 18.7°F-7.4°C 4.4°F-15.3°C 53% Calm Calm -- 30.47 in1031.8 mb - 0.00 in0.0 mm 0.00 in0.0 mm
03:15 AM 18.6°F-7.4°C 4.3°F-15.4°C 53% Calm Calm -- 30.47 in1031.8 mb - 0.00 in0.0 mm 0.00 in0.0 mm
03:30 AM 18.4°F-7.6°C 4.5°F-15.3°C 54% Calm Calm -- 30.47 in1031.8 mb - 0.00 in0.0 mm 0.00 in0.0 mm
03:45 AM 18.3°F-7.6°C 4.4°F-15.3°C 54% Calm Calm -- 30.48 in1032.2 mb - 0.00 in0.0 mm 0.00 in0.0 mm
04:00 AM 18.1°F-7.7°C 4.6°F-15.2°C 55% Calm Calm -- 30.47 in1031.8 mb - 0.00 in0.0 mm 0.00 in0.0 mm
04:15 AM 17.9°F-7.8°C 4.5°F-15.3°C 55% Calm Calm -- 30.48 in1032.2 mb - 0.00 in0.0 mm 0.00 in0.0 mm
04:30 AM 17.9°F-7.8°C 4.9°F-15.1°C 56% Calm Calm -- 30.48 in1032.2 mb - 0.00 in0.0 mm 0.00 in0.0 mm
04:45 AM 17.8°F-7.9°C 5.1°F-14.9°C 57% Calm Calm -- 30.48 in1032.2 mb - 0.00 in0.0 mm 0.00 in0.0 mm
05:00 AM 17.5°F-8.1°C 5.2°F-14.9°C 58% Calm Calm -- 30.48 in1032.2 mb - 0.00 in0.0 mm 0.00 in0.0 mm
05:15 AM 17.4°F-8.1°C 5.9°F-14.5°C 60% Calm Calm -- 30.48 in1032.2 mb - 0.00 in0.0 mm 0.00 in0.0 mm
05:30 AM 17.4°F-8.1°C 6.6°F-14.1°C 62% Calm Calm 1.2 mph1.9 kmh 30.49 in1032.5 mb - 0.00 in0.0 mm 0.00 in0.0 mm
05:45 AM 17.7°F-7.9°C 7.2°F-13.8°C 63% Calm Calm -- 30.48 in1032.2 mb - 0.00 in0.0 mm 0.00 in0.0 mm
06:00 AM 17.7°F-7.9°C 7.9°F-13.4°C 65% Calm Calm -- 30.48 in1032.2 mb - 0.00 in0.0 mm 0.00 in0.0 mm
06:15 AM 17.4°F-8.1°C 8.0°F-13.3°C 66% Calm Calm -- 30.48 in1032.2 mb - 0.00 in0.0 mm 0.00 in0.0 mm
06:30 AM 17.3°F-8.2°C 7.9°F-13.4°C 66% Calm Calm -- 30.49 in1032.5 mb - 0.00 in0.0 mm 0.00 in0.0 mm
06:45 AM 17.3°F-8.2°C 8.2°F-13.2°C 67% Calm Calm -- 30.50 in1032.8 mb - 0.00 in0.0 mm 0.00 in0.0 mm
07:00 AM 17.4°F-8.1°C 8.6°F-13.0°C 68% Calm Calm -- 30.50 in1032.8 mb - 0.00 in0.0 mm 0.00 in0.0 mm
07:15 AM 17.3°F-8.2°C 8.5°F-13.1°C 68% Calm Calm -- 30.51 in1033.2 mb - 0.00 in0.0 mm 0.00 in0.0 mm
07:30 AM 16.9°F-8.4°C 8.5°F-13.1°C 69% Calm Calm -- 30.51 in1033.2 mb - 0.00 in0.0 mm 0.00 in0.0 mm
07:45 AM 16.8°F-8.4°C 8.7°F-12.9°C 70% Calm Calm -- 30.51 in1033.2 mb - 0.00 in0.0 mm 0.00 in0.0 mm
08:00 AM 17.7°F-7.9°C 9.5°F-12.5°C 70% Calm Calm -- 30.52 in1033.5 mb - 0.00 in0.0 mm 0.00 in0.0 mm
08:15 AM 18.1°F-7.7°C 9.7°F-12.4°C 69% Calm Calm -- 30.52 in1033.5 mb - 0.00 in0.0 mm 0.00 in0.0 mm
08:30 AM 18.5°F-7.5°C 9.7°F-12.4°C 68% Calm Calm -- 30.51 in1033.2 mb - 0.00 in0.0 mm 0.00 in0.0 mm
08:45 AM 18.8°F-7.3°C 10.0°F-12.2°C 68% Calm Calm -- 30.52 in1033.5 mb - 0.00 in0.0 mm 0.00 in0.0 mm
09:00 AM 19.3°F-7.1°C 10.5°F-11.9°C 68% Calm Calm -- 30.52 in1033.5 mb - 0.00 in0.0 mm 0.00 in0.0 mm
09:15 AM 19.8°F-6.8°C 10.3°F-12.1°C 66% Calm Calm -- 30.53 in1033.9 mb - 0.00 in0.0 mm 0.00 in0.0 mm
09:30 AM 20.1°F-6.6°C 10.6°F-11.9°C 66% Calm Calm -- 30.54 in1034.2 mb - 0.00 in0.0 mm 0.00 in0.0 mm
09:45 AM 20.8°F-6.2°C 10.8°F-11.8°C 65% Calm Calm -- 30.55 in1034.5 mb - 0.00 in0.0 mm 0.00 in0.0 mm
10:00 AM 21.4°F-5.9°C 11.1°F-11.6°C 64% Calm Calm -- 30.55 in1034.5 mb - 0.00 in0.0 mm 0.00 in0.0 mm
10:15 AM 22.1°F-5.5°C 11.8°F-11.2°C 64% Calm Calm -- 30.55 in1034.5 mb - 0.00 in0.0 mm 0.00 in0.0 mm
10:30 AM 23.1°F-4.9°C 12.0°F-11.1°C 62% Calm Calm -- 30.55 in1034.5 mb - 0.00 in0.0 mm 0.00 in0.0 mm
10:45 AM 23.9°F-4.5°C 12.0°F-11.1°C 60% Calm Calm -- 30.56 in1034.9 mb - 0.00 in0.0 mm 0.00 in0.0 mm
11:00 AM 24.7°F-4.1°C 12.0°F-11.1°C 58% Calm Calm -- 30.56 in1034.9 mb - 0.00 in0.0 mm 0.00 in0.0 mm
11:15 AM 25.4°F-3.7°C 12.7°F-10.7°C 58% Calm Calm -- 30.56 in1034.9 mb - 0.00 in0.0 mm 0.00 in0.0 mm
11:30 AM 25.9°F-3.4°C 12.0°F-11.1°C 55% Calm Calm -- 30.56 in1034.9 mb - 0.00 in0.0 mm 0.00 in0.0 mm
11:45 AM 26.3°F-3.2°C 11.0°F-11.7°C 52% Calm Calm -- 30.55 in1034.5 mb - 0.00 in0.0 mm 0.00 in0.0 mm
12:00 PM 26.8°F-2.9°C 11.5°F-11.4°C 52% Calm Calm -- 30.55 in1034.5 mb - 0.00 in0.0 mm 0.00 in0.0 mm
12:15 PM 27.0°F-2.8°C 11.7°F-11.3°C 52% Calm Calm -- 30.54 in1034.2 mb - 0.00 in0.0 mm 0.00 in0.0 mm
12:30 PM 27.4°F-2.6°C 11.6°F-11.3°C 51% Calm Calm -- 30.53 in1033.9 mb - 0.00 in0.0 mm 0.00 in0.0 mm
12:45 PM 27.2°F-2.7°C 11.0°F-11.7°C 50% Calm Calm -- 30.52 in1033.5 mb - 0.00 in0.0 mm 0.00 in0.0 mm
01:00 PM 28.2°F-2.1°C 11.0°F-11.7°C 48% Calm Calm -- 30.51 in1033.2 mb - 0.00 in0.0 mm 0.00 in0.0 mm
01:15 PM 28.9°F-1.7°C 10.7°F-11.8°C 46% Calm Calm -- 30.51 in1033.2 mb - 0.00 in0.0 mm 0.00 in0.0 mm
01:30 PM 29.7°F-1.3°C 11.0°F-11.7°C 45% Calm Calm -- 30.50 in1032.8 mb - 0.00 in0.0 mm 0.00 in0.0 mm
01:45 PM 30.1°F-1.1°C 10.3°F-12.1°C 43% Calm Calm -- 30.50 in1032.8 mb - 0.00 in0.0 mm 0.00 in0.0 mm
02:00 PM 30.8°F-0.7°C 10.4°F-12.0°C 42% Calm Calm -- 30.49 in1032.5 mb - 0.00 in0.0 mm 0.00 in0.0 mm
02:15 PM 31.2°F-0.4°C 10.2°F-12.1°C 41% Calm Calm -- 30.49 in1032.5 mb - 0.00 in0.0 mm 0.00 in0.0 mm
02:30 PM 31.7°F-0.2°C 7.7°F-13.5°C 36% Calm Calm -- 30.49 in1032.5 mb - 0.00 in0.0 mm 0.00 in0.0 mm
02:45 PM 32.3°F0.2°C 8.3°F-13.2°C 36% Calm Calm -- 30.49 in1032.5 mb - 0.00 in0.0 mm 0.00 in0.0 mm
03:00 PM 32.9°F0.5°C 8.2°F-13.2°C 35% Calm Calm 2.3 mph3.7 kmh 30.49 in1032.5 mb - 0.00 in0.0 mm 0.00 in0.0 mm
03:15 PM 32.9°F0.5°C 8.8°F-12.9°C 36% Calm Calm -- 30.49 in1032.5 mb - 0.00 in0.0 mm 0.00 in0.0 mm
03:30 PM 33.1°F0.6°C 8.4°F-13.1°C 35% Calm Calm -- 30.49 in1032.5 mb - 0.00 in0.0 mm 0.00 in0.0 mm
03:45 PM 32.7°F0.4°C 8.6°F-13.0°C 36% Calm Calm -- 30.49 in1032.5 mb - 0.00 in0.0 mm 0.00 in0.0 mm
04:00 PM 32.7°F0.4°C 8.7°F-12.9°C 36% Calm Calm -- 30.49 in1032.5 mb - 0.00 in0.0 mm 0.00 in0.0 mm
04:15 PM 32.3°F0.2°C 7.7°F-13.5°C 35% Calm Calm -- 30.49 in1032.5 mb - 0.00 in0.0 mm 0.00 in0.0 mm
04:30 PM 32.4°F0.2°C 9.0°F-12.8°C 37% Calm Calm -- 30.49 in1032.5 mb - 0.00 in0.0 mm 0.00 in0.0 mm
04:45 PM 32.1°F0.1°C 7.5°F-13.6°C 35% Calm Calm -- 30.48 in1032.2 mb - 0.00 in0.0 mm 0.00 in0.0 mm
05:00 PM 31.8°F-0.1°C 8.5°F-13.1°C 37% Calm Calm -- 30.48 in1032.2 mb - 0.00 in0.0 mm 0.00 in0.0 mm
05:15 PM 31.8°F-0.1°C 7.8°F-13.4°C 36% Calm Calm -- 30.48 in1032.2 mb - 0.00 in0.0 mm 0.00 in0.0 mm
05:30 PM 31.0°F-0.6°C 7.1°F-13.8°C 36% Calm Calm -- 30.48 in1032.2 mb - 0.00 in0.0 mm 0.00 in0.0 mm
05:45 PM 30.7°F-0.7°C 8.0°F-13.3°C 38% Calm Calm -- 30.48 in1032.2 mb - 0.00 in0.0 mm 0.00 in0.0 mm
06:00 PM 30.3°F-0.9°C 7.7°F-13.5°C 38% Calm Calm -- 30.49 in1032.5 mb - 0.00 in0.0 mm 0.00 in0.0 mm
06:15 PM 30.1°F-1.1°C 8.1°F-13.3°C 39% Calm Calm -- 30.50 in1032.8 mb - 0.00 in0.0 mm 0.00 in0.0 mm
06:30 PM 30.1°F-1.1°C 8.7°F-12.9°C 40% Calm Calm -- 30.50 in1032.8 mb - 0.00 in0.0 mm 0.00 in0.0 mm
06:45 PM 30.1°F-1.1°C 8.7°F-12.9°C 40% Calm Calm -- 30.50 in1032.8 mb - 0.00 in0.0 mm 0.00 in0.0 mm
07:00 PM 30.1°F-1.1°C 9.2°F-12.7°C 41% Calm Calm -- 30.51 in1033.2 mb - 0.00 in0.0 mm 0.00 in0.0 mm
07:15 PM 30.1°F-1.1°C 9.2°F-12.7°C 41% Calm Calm -- 30.50 in1032.8 mb - 0.00 in0.0 mm 0.00 in0.0 mm
07:30 PM 29.9°F-1.2°C 9.6°F-12.4°C 42% Calm Calm -- 30.51 in1033.2 mb - 0.00 in0.0 mm 0.00 in0.0 mm
07:45 PM 29.8°F-1.2°C 10.5°F-11.9°C 44% Calm Calm -- 30.51 in1033.2 mb - 0.00 in0.0 mm 0.00 in0.0 mm
08:00 PM 29.6°F-1.3°C 10.3°F-12.1°C 44% Calm Calm -- 30.51 in1033.2 mb - 0.00 in0.0 mm 0.00 in0.0 mm
08:15 PM 29.4°F-1.4°C 10.1°F-12.2°C 44% Calm Calm -- 30.50 in1032.8 mb - 0.00 in0.0 mm 0.00 in0.0 mm
08:30 PM 29.2°F-1.6°C 10.5°F-11.9°C 45% Calm Calm -- 30.50 in1032.8 mb - 0.00 in0.0 mm 0.00 in0.0 mm
08:45 PM 29.1°F-1.6°C 10.9°F-11.7°C 46% Calm Calm -- 30.51 in1033.2 mb - 0.00 in0.0 mm 0.00 in0.0 mm
09:00 PM 29.0°F-1.7°C 11.3°F-11.5°C 47% Calm Calm -- 30.51 in1033.2 mb - 0.00 in0.0 mm 0.00 in0.0 mm
09:15 PM 29.0°F-1.7°C 11.2°F-11.6°C 47% Calm Calm -- 30.51 in1033.2 mb - 0.00 in0.0 mm 0.00 in0.0 mm
09:30 PM 29.0°F-1.7°C 11.7°F-11.3°C 48% Calm Calm -- 30.52 in1033.5 mb - 0.00 in0.0 mm 0.00 in0.0 mm
09:45 PM 29.0°F-1.7°C 12.2°F-11.0°C 49% Calm Calm -- 30.52 in1033.5 mb - 0.00 in0.0 mm 0.00 in0.0 mm
10:00 PM 28.9°F-1.7°C 12.1°F-11.1°C 49% Calm Calm -- 30.52 in1033.5 mb - 0.00 in0.0 mm 0.00 in0.0 mm
10:15 PM 29.0°F-1.7°C 12.2°F-11.0°C 49% Calm Calm -- 30.52 in1033.5 mb - 0.00 in0.0 mm 0.00 in0.0 mm
10:30 PM 28.9°F-1.7°C 12.1°F-11.1°C 49% Calm Calm -- 30.51 in1033.2 mb - 0.00 in0.0 mm 0.00 in0.0 mm
10:45 PM 28.8°F-1.8°C 12.0°F-11.1°C 49% Calm Calm -- 30.51 in1033.2 mb - 0.00 in0.0 mm 0.00 in0.0 mm
11:00 PM 28.8°F-1.8°C 12.4°F-10.9°C 50% Calm Calm -- 30.50 in1032.8 mb - 0.00 in0.0 mm 0.00 in0.0 mm
11:15 PM 28.6°F-1.9°C 12.7°F-10.7°C 51% Calm Calm -- 30.49 in1032.5 mb - 0.00 in0.0 mm 0.00 in0.0 mm
11:30 PM 28.5°F-1.9°C 12.6°F-10.8°C 51% Calm Calm -- 30.49 in1032.5 mb - 0.00 in0.0 mm 0.00 in0.0 mm
11:45 PM 28.4°F-2.0°C 13.0°F-10.6°C 52% Calm Calm -- 30.48 in1032.2 mb - 0.00 in0.0 mm 0.00 in0.0 mm